createdAt,value
2019-02-05T00:00:19.935Z,1018.56
2019-02-05T00:02:12.825Z,1018.63
2019-02-05T00:03:12.837Z,1018.54
2019-02-05T00:05:05.762Z,1018.54
2019-02-05T00:06:05.742Z,1018.53
2019-02-05T00:07:58.645Z,1018.56
2019-02-05T00:08:58.646Z,1018.56
2019-02-05T00:10:51.537Z,1018.64
2019-02-05T00:11:51.548Z,1018.63
2019-02-05T00:13:44.451Z,1018.67
2019-02-05T00:14:44.451Z,1018.68
2019-02-05T00:16:37.346Z,1018.64
2019-02-05T00:17:37.356Z,1018.64
2019-02-05T00:19:30.256Z,1018.63
2019-02-05T00:20:30.260Z,1018.66
2019-02-05T00:22:23.153Z,1018.64
2019-02-05T00:23:23.164Z,1018.64
2019-02-05T00:25:16.065Z,1018.63
2019-02-05T00:26:16.067Z,1018.66
2019-02-05T00:28:08.969Z,1018.72
2019-02-05T00:29:08.971Z,1018.74
2019-02-05T00:31:01.864Z,1018.72
2019-02-05T00:32:01.876Z,1018.69
2019-02-05T00:33:54.779Z,1018.71
2019-02-05T00:34:54.780Z,1018.70
2019-02-05T00:36:47.678Z,1018.76
2019-02-05T00:37:47.684Z,1018.77
2019-02-05T00:39:40.584Z,1018.74
2019-02-05T00:40:40.587Z,1018.75
2019-02-05T00:42:33.484Z,1018.80
2019-02-05T00:43:33.493Z,1018.75
2019-02-05T00:45:26.534Z,1018.83
2019-02-05T00:46:26.539Z,1018.85
2019-02-05T00:48:19.437Z,1018.84
2019-02-05T00:49:19.443Z,1018.83
2019-02-05T00:51:12.336Z,1018.85
2019-02-05T00:52:12.344Z,1018.79
2019-02-05T00:54:05.241Z,1018.82
2019-02-05T00:55:05.245Z,1018.80
2019-02-05T00:56:58.140Z,1018.81
2019-02-05T00:57:58.152Z,1018.80
2019-02-05T00:59:51.053Z,1018.81
2019-02-05T01:00:51.056Z,1018.85
2019-02-05T01:02:43.946Z,1018.86
2019-02-05T01:03:43.957Z,1018.84
2019-02-05T01:05:36.858Z,1018.91
2019-02-05T01:06:36.859Z,1018.89
2019-02-05T01:08:29.765Z,1018.96
2019-02-05T01:09:29.768Z,1018.93
2019-02-05T01:11:22.660Z,1018.90
2019-02-05T01:12:22.672Z,1018.96
2019-02-05T01:14:15.576Z,1018.92
2019-02-05T01:15:15.582Z,1018.93
2019-02-05T01:17:08.472Z,1018.92
2019-02-05T01:18:08.483Z,1018.94
2019-02-05T01:20:01.387Z,1018.92
2019-02-05T01:21:01.390Z,1018.98
2019-02-05T01:22:54.281Z,1019.00
2019-02-05T01:23:54.294Z,1019.06
2019-02-05T01:25:47.201Z,1019.11
2019-02-05T01:26:47.200Z,1019.11
2019-02-05T01:28:40.099Z,1019.12
2019-02-05T01:29:40.101Z,1019.13
2019-02-05T01:31:32.997Z,1019.04
2019-02-05T01:32:33.005Z,1019.03
2019-02-05T01:34:25.903Z,1018.95
2019-02-05T01:35:25.905Z,1018.95
2019-02-05T01:37:18.800Z,1018.91
2019-02-05T01:38:18.809Z,1018.88
2019-02-05T01:40:11.710Z,1018.97
2019-02-05T01:41:11.715Z,1019.03
2019-02-05T01:43:04.677Z,1019.00
2019-02-05T01:44:04.618Z,1018.89
2019-02-05T01:45:57.518Z,1018.87
2019-02-05T01:46:57.520Z,1018.87
2019-02-05T01:48:50.422Z,1018.89
2019-02-05T01:49:50.423Z,1018.90
2019-02-05T01:51:43.318Z,1018.87
2019-02-05T01:52:43.328Z,1018.88
2019-02-05T01:54:36.226Z,1018.84
2019-02-05T01:55:36.229Z,1018.85
2019-02-05T01:57:29.123Z,1018.83
2019-02-05T01:58:29.135Z,1018.90
2019-02-05T02:00:22.034Z,1018.91
2019-02-05T02:01:22.034Z,1019.02
2019-02-05T02:03:14.931Z,1019.03
2019-02-05T02:04:14.938Z,1019.01
2019-02-05T02:06:07.838Z,1019.00
2019-02-05T02:07:07.841Z,1019.07
2019-02-05T02:09:00.741Z,1019.09
2019-02-05T02:10:00.743Z,1019.07
2019-02-05T02:11:53.640Z,1019.10
2019-02-05T02:12:53.647Z,1019.12
2019-02-05T02:14:46.569Z,1019.13
2019-02-05T02:15:46.550Z,1019.15
2019-02-05T02:17:39.447Z,1019.17
2019-02-05T02:18:39.454Z,1019.13
2019-02-05T02:20:32.353Z,1019.12
2019-02-05T02:21:32.356Z,1019.02
2019-02-05T02:23:25.253Z,1019.05
2019-02-05T02:24:25.258Z,1018.97
2019-02-05T02:26:18.159Z,1018.94
2019-02-05T02:27:18.160Z,1018.97
2019-02-05T02:29:11.062Z,1018.97
2019-02-05T02:30:11.167Z,1018.98
2019-02-05T02:32:03.956Z,1019.08
2019-02-05T02:33:03.970Z,1019.06
2019-02-05T02:34:56.870Z,1019.09
2019-02-05T02:35:56.873Z,1019.07
2019-02-05T02:37:49.768Z,1019.05
2019-02-05T02:38:49.775Z,1019.06
2019-02-05T02:40:42.676Z,1019.05
2019-02-05T02:41:42.686Z,1019.11
2019-02-05T02:43:35.573Z,1019.12
2019-02-05T02:44:35.581Z,1019.11
2019-02-05T02:46:28.485Z,1019.07
2019-02-05T02:47:28.485Z,1019.08
2019-02-05T02:49:21.383Z,1019.08
2019-02-05T02:50:21.483Z,1019.10
2019-02-05T02:52:14.280Z,1019.13
2019-02-05T02:53:14.291Z,1019.12
2019-02-05T02:55:07.191Z,1019.06
2019-02-05T02:56:07.192Z,1019.07
2019-02-05T02:58:00.088Z,1019.06
2019-02-05T02:59:00.097Z,1019.06
2019-02-05T03:00:52.994Z,1019.15
2019-02-05T03:01:52.999Z,1019.19
2019-02-05T03:03:45.897Z,1019.22
2019-02-05T03:04:45.908Z,1019.22
2019-02-05T03:06:38.809Z,1019.25
2019-02-05T03:07:39.041Z,1019.20
2019-02-05T03:09:31.708Z,1019.24
2019-02-05T03:10:31.712Z,1019.25
2019-02-05T03:12:24.603Z,1019.27
2019-02-05T03:13:24.618Z,1019.32
2019-02-05T03:15:17.515Z,1019.30
2019-02-05T03:16:17.520Z,1019.26
2019-02-05T03:18:10.412Z,1019.24
2019-02-05T03:19:10.426Z,1019.21
2019-02-05T03:21:03.324Z,1019.17
2019-02-05T03:22:03.326Z,1019.18
2019-02-05T03:23:56.217Z,1019.18
2019-02-05T03:24:56.228Z,1019.17
2019-02-05T03:26:49.130Z,1019.10
2019-02-05T03:27:49.132Z,1019.08
2019-02-05T03:29:42.032Z,1019.18
2019-02-05T03:30:42.034Z,1019.18
2019-02-05T03:32:34.929Z,1019.19
2019-02-05T03:33:34.943Z,1019.22
2019-02-05T03:35:27.839Z,1019.27
2019-02-05T03:36:27.843Z,1019.25
2019-02-05T03:38:20.733Z,1019.23
2019-02-05T03:39:20.746Z,1019.21
2019-02-05T03:41:13.645Z,1019.22
2019-02-05T03:42:13.648Z,1019.26
2019-02-05T03:44:06.543Z,1019.21
2019-02-05T03:45:06.551Z,1019.20
2019-02-05T03:46:59.454Z,1019.17
2019-02-05T03:47:59.455Z,1019.17
2019-02-05T03:49:52.359Z,1019.20
2019-02-05T03:50:52.357Z,1019.22
2019-02-05T03:52:45.256Z,1019.26
2019-02-05T03:53:45.267Z,1019.28
2019-02-05T03:55:38.166Z,1019.25
2019-02-05T03:56:38.168Z,1019.25
2019-02-05T03:58:31.060Z,1019.30
2019-02-05T03:59:31.073Z,1019.29
2019-02-05T04:01:23.973Z,1019.27
2019-02-05T04:02:23.978Z,1019.28
2019-02-05T04:04:16.871Z,1019.26
2019-02-05T04:05:16.883Z,1019.25
2019-02-05T04:07:09.781Z,1019.23
2019-02-05T04:08:09.783Z,1019.19
2019-02-05T04:10:02.690Z,1019.20
2019-02-05T04:11:02.689Z,1019.22
2019-02-05T04:12:55.583Z,1019.21
2019-02-05T04:13:55.596Z,1019.18
2019-02-05T04:15:48.496Z,1019.11
2019-02-05T04:16:48.499Z,1019.16
2019-02-05T04:18:41.394Z,1019.17
2019-02-05T04:19:41.401Z,1019.17
2019-02-05T04:21:34.300Z,1019.19
2019-02-05T04:22:34.301Z,1019.16
2019-02-05T04:24:27.198Z,1019.12
2019-02-05T04:25:27.205Z,1019.16
2019-02-05T04:27:20.104Z,1019.09
2019-02-05T04:28:20.107Z,1019.10
2019-02-05T04:30:13.025Z,1019.08
2019-02-05T04:31:13.029Z,1019.10
2019-02-05T04:33:05.911Z,1019.05
2019-02-05T04:34:05.921Z,1019.02
2019-02-05T04:35:58.829Z,1019.03
2019-02-05T04:36:58.822Z,1019.02
2019-02-05T04:38:51.718Z,1019.10
2019-02-05T04:39:51.728Z,1019.13
2019-02-05T04:41:44.627Z,1019.13
2019-02-05T04:42:44.708Z,1019.16
2019-02-05T04:44:37.525Z,1019.19
2019-02-05T04:45:37.534Z,1019.14
2019-02-05T04:47:30.433Z,1019.16
2019-02-05T04:48:30.435Z,1019.12
2019-02-05T04:50:23.358Z,1019.20
2019-02-05T04:51:23.339Z,1019.18
2019-02-05T04:53:16.233Z,1019.17
2019-02-05T04:54:16.241Z,1019.24
2019-02-05T04:56:09.146Z,1019.21
2019-02-05T04:57:09.146Z,1019.22
2019-02-05T04:59:02.055Z,1019.23
2019-02-05T05:00:02.055Z,1019.21
2019-02-05T05:01:54.952Z,1019.20
2019-02-05T05:02:54.958Z,1019.17
2019-02-05T05:04:47.846Z,1019.19
2019-02-05T05:05:47.857Z,1019.21
2019-02-05T05:07:40.762Z,1019.23
2019-02-05T05:08:40.760Z,1019.21
2019-02-05T05:10:33.655Z,1019.27
2019-02-05T05:11:33.663Z,1019.27
2019-02-05T05:13:26.562Z,1019.29
2019-02-05T05:14:26.571Z,1019.32
2019-02-05T05:16:19.464Z,1019.32
2019-02-05T05:17:19.468Z,1019.35
2019-02-05T05:19:12.368Z,1019.37
2019-02-05T05:20:12.372Z,1019.36
2019-02-05T05:22:05.272Z,1019.38
2019-02-05T05:23:05.274Z,1019.38
2019-02-05T05:24:58.168Z,1019.41
2019-02-05T05:25:58.175Z,1019.38
2019-02-05T05:27:51.074Z,1019.43
2019-02-05T05:28:51.078Z,1019.40
2019-02-05T05:30:43.971Z,1019.41
2019-02-05T05:31:43.981Z,1019.39
2019-02-05T05:33:36.882Z,1019.46
2019-02-05T05:34:36.883Z,1019.46
2019-02-05T05:36:29.784Z,1019.45
2019-02-05T05:37:29.785Z,1019.47
2019-02-05T05:39:22.746Z,1019.44
2019-02-05T05:40:22.686Z,1019.43
2019-02-05T05:42:15.587Z,1019.43
2019-02-05T05:43:15.590Z,1019.46
2019-02-05T05:45:08.487Z,1019.43
2019-02-05T05:46:08.498Z,1019.51
2019-02-05T05:48:01.398Z,1019.53
2019-02-05T05:49:01.405Z,1019.53
2019-02-05T05:50:54.295Z,1019.50
2019-02-05T05:51:54.303Z,1019.53
2019-02-05T05:53:47.208Z,1019.51
2019-02-05T05:54:47.208Z,1019.51
2019-02-05T05:56:40.110Z,1019.53
2019-02-05T05:57:40.111Z,1019.55
2019-02-05T05:59:33.013Z,1019.56
2019-02-05T06:00:33.024Z,1019.56
2019-02-05T06:02:25.927Z,1019.58
2019-02-05T06:03:25.926Z,1019.62
2019-02-05T06:05:18.822Z,1019.62
2019-02-05T06:06:18.833Z,1019.60
2019-02-05T06:08:11.750Z,1019.67
2019-02-05T06:09:11.744Z,1019.73
2019-02-05T06:11:04.631Z,1019.73
2019-02-05T06:12:04.636Z,1019.70
2019-02-05T06:13:57.541Z,1019.73
2019-02-05T06:14:57.543Z,1019.73
2019-02-05T06:16:50.448Z,1019.76
2019-02-05T06:17:50.444Z,1019.75
2019-02-05T06:19:43.338Z,1019.76
2019-02-05T06:20:43.347Z,1019.72
2019-02-05T06:22:36.250Z,1019.75
2019-02-05T06:23:36.252Z,1019.79
2019-02-05T06:25:29.144Z,1019.77
2019-02-05T06:26:29.161Z,1019.80
2019-02-05T06:28:34.029Z,1019.80
2019-02-05T06:29:22.056Z,1019.76
2019-02-05T06:31:14.948Z,1019.74
2019-02-05T06:32:14.960Z,1019.74
2019-02-05T06:34:07.861Z,1019.69
2019-02-05T06:35:07.862Z,1019.76
2019-02-05T06:37:00.768Z,1019.77
2019-02-05T06:38:00.768Z,1019.74
2019-02-05T06:39:53.659Z,1019.79
2019-02-05T06:40:53.686Z,1019.75
2019-02-05T06:42:46.568Z,1019.78
2019-02-05T06:43:46.571Z,1019.79
2019-02-05T06:45:41.516Z,1019.84
2019-02-05T06:46:39.475Z,1019.87
2019-02-05T06:48:32.374Z,1019.85
2019-02-05T06:49:32.377Z,1019.86
2019-02-05T06:51:25.274Z,1019.86
2019-02-05T06:52:25.280Z,1019.87
2019-02-05T06:54:18.181Z,1019.90
2019-02-05T06:55:18.185Z,1019.89
2019-02-05T06:57:11.086Z,1019.88
2019-02-05T06:58:11.088Z,1019.90
2019-02-05T07:00:03.983Z,1020.01
2019-02-05T07:01:03.993Z,1020.02
2019-02-05T07:02:56.892Z,1020.07
2019-02-05T07:03:56.896Z,1020.06
2019-02-05T07:05:49.791Z,1020.12
2019-02-05T07:06:49.802Z,1020.14
2019-02-05T07:08:42.754Z,1020.16
2019-02-05T07:09:42.703Z,1020.23
2019-02-05T07:11:35.598Z,1020.21
2019-02-05T07:12:35.608Z,1020.23
2019-02-05T07:14:28.509Z,1020.25
2019-02-05T07:15:28.512Z,1020.24
2019-02-05T07:17:21.411Z,1020.25
2019-02-05T07:18:21.413Z,1020.28
2019-02-05T07:20:14.306Z,1020.29
2019-02-05T07:21:14.316Z,1020.27
2019-02-05T07:23:07.216Z,1020.29
2019-02-05T07:24:07.217Z,1020.30
2019-02-05T07:26:00.191Z,1020.28
2019-02-05T07:27:00.121Z,1020.28
2019-02-05T07:29:00.050Z,1020.28
2019-02-05T07:29:53.026Z,1020.27
2019-02-05T07:31:45.916Z,1020.29
2019-02-05T07:32:45.928Z,1020.32
2019-02-05T07:34:38.830Z,1020.35
2019-02-05T07:35:38.834Z,1020.34
2019-02-05T07:37:31.741Z,1020.36
2019-02-05T07:38:31.738Z,1020.41
2019-02-05T07:40:24.640Z,1020.43
2019-02-05T07:41:24.643Z,1020.41
2019-02-05T07:43:17.543Z,1020.41
2019-02-05T07:44:17.574Z,1020.41
2019-02-05T07:46:10.537Z,1020.39
2019-02-05T07:47:10.548Z,1020.39
2019-02-05T07:49:03.449Z,1020.42
2019-02-05T07:50:03.452Z,1020.44
2019-02-05T07:51:56.347Z,1020.49
2019-02-05T07:52:56.354Z,1020.46
2019-02-05T07:54:49.253Z,1020.57
2019-02-05T07:55:49.259Z,1020.60
2019-02-05T07:57:42.156Z,1020.63
2019-02-05T07:58:42.159Z,1020.63
2019-02-05T08:00:35.059Z,1020.63
2019-02-05T08:01:35.065Z,1020.60
2019-02-05T08:03:27.965Z,1020.65
2019-02-05T08:04:27.967Z,1020.69
2019-02-05T08:06:20.860Z,1020.72
2019-02-05T08:07:20.869Z,1020.78
2019-02-05T08:09:13.770Z,1020.72
2019-02-05T08:10:13.775Z,1020.71
2019-02-05T08:12:06.671Z,1020.76
2019-02-05T08:13:06.684Z,1020.77
2019-02-05T08:14:59.584Z,1020.80
2019-02-05T08:15:59.585Z,1020.80
2019-02-05T08:17:52.484Z,1020.79
2019-02-05T08:18:52.486Z,1020.84
2019-02-05T08:20:45.378Z,1020.83
2019-02-05T08:21:45.388Z,1020.85
2019-02-05T08:23:38.288Z,1020.90
2019-02-05T08:24:38.292Z,1020.91
2019-02-05T08:26:31.182Z,1020.93
2019-02-05T08:27:31.195Z,1020.95
2019-02-05T08:29:24.093Z,1020.98
2019-02-05T08:30:24.099Z,1021.02
2019-02-05T08:32:16.996Z,1021.02
2019-02-05T08:33:17.004Z,1021.04
2019-02-05T08:35:09.903Z,1021.09
2019-02-05T08:36:09.907Z,1021.08
2019-02-05T08:38:02.805Z,1021.14
2019-02-05T08:39:02.809Z,1021.11
2019-02-05T08:40:55.704Z,1021.17
2019-02-05T08:41:55.713Z,1021.17
2019-02-05T08:43:48.626Z,1021.16
2019-02-05T08:44:48.616Z,1021.19
2019-02-05T08:46:41.512Z,1021.17
2019-02-05T08:47:41.522Z,1021.18
2019-02-05T08:49:34.422Z,1021.17
2019-02-05T08:50:34.425Z,1021.26
2019-02-05T08:52:27.317Z,1021.25
2019-02-05T08:53:27.331Z,1021.24
2019-02-05T08:55:20.229Z,1021.20
2019-02-05T08:56:20.233Z,1021.27
2019-02-05T08:58:13.137Z,1021.26
2019-02-05T08:59:13.136Z,1021.27
2019-02-05T09:01:06.029Z,1021.28
2019-02-05T09:02:06.039Z,1021.32
2019-02-05T09:03:58.938Z,1021.32
2019-02-05T09:04:58.938Z,1021.34
2019-02-05T09:06:51.838Z,1021.34
2019-02-05T09:07:51.850Z,1021.34
2019-02-05T09:09:44.747Z,1021.34
2019-02-05T09:10:44.748Z,1021.39
2019-02-05T09:12:37.643Z,1021.42
2019-02-05T09:13:37.654Z,1021.45
2019-02-05T09:15:30.559Z,1021.43
2019-02-05T09:16:30.563Z,1021.41
2019-02-05T09:18:23.463Z,1021.43
2019-02-05T09:19:23.464Z,1021.45
2019-02-05T09:21:16.360Z,1021.43
2019-02-05T09:22:16.371Z,1021.44
2019-02-05T09:24:09.274Z,1021.45
2019-02-05T09:25:09.277Z,1021.45
2019-02-05T09:27:02.174Z,1021.52
2019-02-05T09:28:02.731Z,1021.54
2019-02-05T09:29:55.085Z,1021.52
2019-02-05T09:30:55.086Z,1021.55
2019-02-05T09:32:47.984Z,1021.59
2019-02-05T09:33:47.997Z,1021.62
2019-02-05T09:35:40.897Z,1021.58
2019-02-05T09:36:40.898Z,1021.63
2019-02-05T09:38:33.802Z,1021.59
2019-02-05T09:39:33.805Z,1021.63
2019-02-05T09:41:26.701Z,1021.62
2019-02-05T09:42:26.711Z,1021.63
2019-02-05T09:44:19.610Z,1021.63
2019-02-05T09:45:19.616Z,1021.61
2019-02-05T09:47:12.511Z,1021.68
2019-02-05T09:48:12.521Z,1021.66
2019-02-05T09:50:05.431Z,1021.66
2019-02-05T09:51:05.427Z,1021.68
2019-02-05T09:52:58.319Z,1021.70
2019-02-05T09:53:58.331Z,1021.73
2019-02-05T09:55:51.235Z,1021.72
2019-02-05T09:56:51.238Z,1021.73
2019-02-05T09:58:44.141Z,1021.77
2019-02-05T09:59:45.681Z,1021.73
2019-02-05T10:01:37.037Z,1021.82
2019-02-05T10:02:37.050Z,1021.85
2019-02-05T10:04:29.949Z,1021.81
2019-02-05T10:05:29.954Z,1021.82
2019-02-05T10:07:22.847Z,1021.90
2019-02-05T10:08:22.858Z,1021.90
2019-02-05T10:10:15.762Z,1021.92
2019-02-05T10:11:15.765Z,1021.93
2019-02-05T10:13:08.657Z,1021.92
2019-02-05T10:14:08.669Z,1021.92
2019-02-05T10:16:01.571Z,1021.93
2019-02-05T10:17:01.668Z,1021.94
2019-02-05T10:18:54.475Z,1021.96
2019-02-05T10:19:54.478Z,1021.93
2019-02-05T10:21:47.376Z,1021.95
2019-02-05T10:22:47.386Z,1021.98
2019-02-05T10:24:40.290Z,1022.01
2019-02-05T10:25:40.292Z,1022.02
2019-02-05T10:27:33.184Z,1022.03
2019-02-05T10:28:33.196Z,1022.00
2019-02-05T10:30:26.096Z,1021.99
2019-02-05T10:31:26.101Z,1021.98
2019-02-05T10:33:18.995Z,1022.01
2019-02-05T10:34:19.005Z,1022.06
2019-02-05T10:36:11.908Z,1022.06
2019-02-05T10:37:11.912Z,1022.06
2019-02-05T10:39:04.821Z,1022.12
2019-02-05T10:40:04.823Z,1022.11
2019-02-05T10:41:57.714Z,1022.09
2019-02-05T10:42:57.727Z,1022.11
2019-02-05T10:44:50.625Z,1022.08
2019-02-05T10:45:50.628Z,1022.12
2019-02-05T10:47:43.527Z,1022.10
2019-02-05T10:48:43.539Z,1022.10
2019-02-05T10:50:36.446Z,1022.06
2019-02-05T10:51:36.446Z,1022.04
2019-02-05T10:53:29.340Z,1022.07
2019-02-05T10:54:29.350Z,1022.10
2019-02-05T10:56:22.251Z,1022.09
2019-02-05T10:57:22.254Z,1022.05
2019-02-05T10:59:15.161Z,1022.04
2019-02-05T11:00:15.162Z,1022.04
2019-02-05T11:02:08.055Z,1022.03
2019-02-05T11:03:08.069Z,1022.01
2019-02-05T11:05:00.967Z,1022.01
2019-02-05T11:06:00.972Z,1022.06
2019-02-05T11:07:53.864Z,1022.03
2019-02-05T11:08:53.876Z,1021.96
2019-02-05T11:10:46.774Z,1022.00
2019-02-05T11:11:46.780Z,1021.99
2019-02-05T11:13:39.675Z,1021.99
2019-02-05T11:14:39.688Z,1022.01
2019-02-05T11:16:32.589Z,1022.01
2019-02-05T11:17:32.595Z,1021.99
2019-02-05T11:19:25.609Z,1022.02
2019-02-05T11:20:25.507Z,1022.00
2019-02-05T11:22:18.404Z,1021.95
2019-02-05T11:23:18.416Z,1021.98
2019-02-05T11:25:11.319Z,1021.93
2019-02-05T11:26:11.323Z,1021.94
2019-02-05T11:28:04.216Z,1021.92
2019-02-05T11:29:04.227Z,1021.89
2019-02-05T11:30:57.127Z,1021.87
2019-02-05T11:31:57.130Z,1021.85
2019-02-05T11:33:50.027Z,1021.88
2019-02-05T11:34:50.038Z,1021.89
2019-02-05T11:36:42.942Z,1021.86
2019-02-05T11:37:42.946Z,1021.90
2019-02-05T11:39:35.862Z,1021.91
2019-02-05T11:40:35.848Z,1021.90
2019-02-05T11:42:28.745Z,1021.88
2019-02-05T11:43:28.766Z,1021.86
2019-02-05T11:45:21.661Z,1021.84
2019-02-05T11:46:21.665Z,1021.87
2019-02-05T11:48:14.559Z,1021.88
2019-02-05T11:49:14.574Z,1021.89
2019-02-05T11:51:07.477Z,1021.87
2019-02-05T11:52:09.770Z,1021.87
2019-02-05T11:54:00.376Z,1021.85
2019-02-05T11:55:00.389Z,1021.85
2019-02-05T11:56:53.290Z,1021.86
2019-02-05T11:57:53.294Z,1021.87
2019-02-05T11:59:46.213Z,1021.87
2019-02-05T12:00:46.201Z,1021.85
2019-02-05T12:02:39.096Z,1021.92
2019-02-05T12:03:39.106Z,1021.87
2019-02-05T12:05:32.009Z,1021.86
2019-02-05T12:06:32.009Z,1021.85
2019-02-05T12:08:24.905Z,1021.82
2019-02-05T12:09:24.915Z,1021.82
2019-02-05T12:11:17.820Z,1021.81
2019-02-05T12:12:17.820Z,1021.80
2019-02-05T12:14:10.717Z,1021.83
2019-02-05T12:15:10.728Z,1021.87
2019-02-05T12:17:03.630Z,1021.76
2019-02-05T12:18:03.635Z,1021.82
2019-02-05T12:19:56.527Z,1021.80
2019-02-05T12:20:56.542Z,1021.80
2019-02-05T12:22:49.441Z,1021.79
2019-02-05T12:23:49.446Z,1021.79
2019-02-05T12:25:42.345Z,1021.78
2019-02-05T12:26:42.349Z,1021.86
2019-02-05T12:28:35.246Z,1021.79
2019-02-05T12:29:35.259Z,1021.82
2019-02-05T12:31:28.162Z,1021.83
2019-02-05T12:32:28.166Z,1021.76
2019-02-05T12:34:21.072Z,1021.85
2019-02-05T12:35:21.084Z,1021.85
2019-02-05T12:37:13.986Z,1021.83
2019-02-05T12:38:13.990Z,1021.82
2019-02-05T12:40:06.885Z,1021.79
2019-02-05T12:41:06.899Z,1021.79
2019-02-05T12:42:59.804Z,1021.77
2019-02-05T12:43:59.926Z,1021.83
2019-02-05T12:45:52.705Z,1021.80
2019-02-05T12:46:52.712Z,1021.79
2019-02-05T12:48:45.605Z,1021.81
2019-02-05T12:49:45.616Z,1021.81
2019-02-05T12:51:38.519Z,1021.83
2019-02-05T12:52:38.527Z,1021.79
2019-02-05T12:54:31.417Z,1021.88
2019-02-05T12:55:31.429Z,1021.89
2019-02-05T12:57:24.333Z,1021.91
2019-02-05T12:58:24.336Z,1021.90
2019-02-05T13:00:17.231Z,1021.92
2019-02-05T13:01:17.242Z,1021.95
2019-02-05T13:03:10.147Z,1021.96
2019-02-05T13:04:10.152Z,1021.99
2019-02-05T13:06:03.085Z,1021.99
2019-02-05T13:07:03.059Z,1021.99
2019-02-05T13:08:55.951Z,1022.01
2019-02-05T13:09:55.961Z,1022.00
2019-02-05T13:11:48.864Z,1022.00
2019-02-05T13:12:48.903Z,1021.97
2019-02-05T13:14:41.768Z,1022.00
2019-02-05T13:15:41.777Z,1021.99
2019-02-05T13:17:34.681Z,1022.00
2019-02-05T13:18:34.685Z,1022.00
2019-02-05T13:20:27.582Z,1022.03
2019-02-05T13:21:27.594Z,1022.01
2019-02-05T13:23:20.502Z,1022.03
2019-02-05T13:24:20.506Z,1022.04
2019-02-05T13:26:13.407Z,1022.10
2019-02-05T13:27:13.408Z,1022.11
2019-02-05T13:29:06.305Z,1022.09
2019-02-05T13:30:06.317Z,1022.09
2019-02-05T13:31:59.219Z,1022.09
2019-02-05T13:32:59.222Z,1022.11
2019-02-05T13:34:52.115Z,1022.12
2019-02-05T13:35:52.126Z,1022.10
2019-02-05T13:37:45.027Z,1022.15
2019-02-05T13:38:45.031Z,1022.12
2019-02-05T13:40:37.926Z,1022.13
2019-02-05T13:41:37.938Z,1022.13
2019-02-05T13:43:30.841Z,1022.18
2019-02-05T13:44:30.845Z,1022.17
2019-02-05T13:46:23.748Z,1022.10
2019-02-05T13:47:24.751Z,1022.09
2019-02-05T13:49:16.654Z,1022.13
2019-02-05T13:50:16.663Z,1022.16
2019-02-05T13:52:09.567Z,1022.07
2019-02-05T13:53:09.568Z,1022.11
2019-02-05T13:55:02.467Z,1022.09
2019-02-05T13:56:05.272Z,1022.05
2019-02-05T13:57:55.382Z,1022.09
2019-02-05T13:58:55.383Z,1022.06
2019-02-05T14:00:48.283Z,1022.05
2019-02-05T14:01:48.290Z,1022.02
2019-02-05T14:03:41.216Z,1022.04
2019-02-05T14:04:41.288Z,1022.04
2019-02-05T14:06:34.105Z,1022.11
2019-02-05T14:07:34.103Z,1022.14
2019-02-05T14:09:26.996Z,1022.14
2019-02-05T14:10:27.014Z,1022.15
2019-02-05T14:12:21.889Z,1022.18
2019-02-05T14:13:19.919Z,1022.16
2019-02-05T14:15:12.814Z,1022.22
2019-02-05T14:16:12.825Z,1022.18
2019-02-05T14:18:05.735Z,1022.20
2019-02-05T14:19:05.736Z,1022.19
2019-02-05T14:20:58.699Z,1022.20
2019-02-05T14:21:58.694Z,1022.16
2019-02-05T14:23:52.589Z,1022.16
2019-02-05T14:24:52.593Z,1022.16
2019-02-05T14:26:45.502Z,1022.14
2019-02-05T14:27:45.503Z,1022.14
2019-02-05T14:29:38.401Z,1022.15
2019-02-05T14:30:38.415Z,1022.16
2019-02-05T14:32:31.331Z,1022.15
2019-02-05T14:33:31.353Z,1022.12
2019-02-05T14:35:24.216Z,1022.15
2019-02-05T14:36:24.230Z,1022.20
2019-02-05T14:38:17.131Z,1022.17
2019-02-05T14:39:17.139Z,1022.16
2019-02-05T14:41:10.036Z,1022.10
2019-02-05T14:42:10.045Z,1022.16
2019-02-05T14:44:02.955Z,1022.18
2019-02-05T14:45:02.958Z,1022.16
2019-02-05T14:46:55.861Z,1022.13
2019-02-05T14:47:55.866Z,1022.15
2019-02-05T14:49:48.763Z,1022.14
2019-02-05T14:50:48.776Z,1022.20
2019-02-05T14:52:41.680Z,1022.20
2019-02-05T14:53:41.684Z,1022.21
2019-02-05T14:55:34.579Z,1022.23
2019-02-05T14:56:34.591Z,1022.25
2019-02-05T14:58:27.494Z,1022.21
2019-02-05T14:59:27.500Z,1022.24
2019-02-05T15:01:20.395Z,1022.25
2019-02-05T15:02:20.407Z,1022.25
2019-02-05T15:04:13.310Z,1022.27
2019-02-05T15:05:13.316Z,1022.27
2019-02-05T15:07:06.220Z,1022.27
2019-02-05T15:08:06.225Z,1022.29
2019-02-05T15:09:59.121Z,1022.26
2019-02-05T15:10:59.133Z,1022.23
2019-02-05T15:12:52.037Z,1022.25
2019-02-05T15:13:52.039Z,1022.23
2019-02-05T15:15:44.936Z,1022.22
2019-02-05T15:16:44.947Z,1022.18
2019-02-05T15:18:37.856Z,1022.22
2019-02-05T15:19:37.853Z,1022.21
2019-02-05T15:21:30.751Z,1022.29
2019-02-05T15:22:30.761Z,1022.24
2019-02-05T15:24:24.180Z,1022.22
2019-02-05T15:25:24.167Z,1022.24
2019-02-05T15:27:17.069Z,1022.21
2019-02-05T15:28:17.074Z,1022.22
2019-02-05T15:30:09.970Z,1022.19
2019-02-05T15:31:09.982Z,1022.21
2019-02-05T15:33:02.885Z,1022.21
2019-02-05T15:34:02.886Z,1022.23
2019-02-05T15:35:55.782Z,1022.19
2019-02-05T15:36:55.848Z,1022.19
2019-02-05T15:38:48.699Z,1022.19
2019-02-05T15:39:48.702Z,1022.18
2019-02-05T15:41:41.602Z,1022.16
2019-02-05T15:42:41.613Z,1022.16
2019-02-05T15:44:34.515Z,1022.16
2019-02-05T15:45:34.562Z,1022.20
2019-02-05T15:47:27.423Z,1022.17
2019-02-05T15:48:27.425Z,1022.16
2019-02-05T15:50:20.326Z,1022.18
2019-02-05T15:51:20.334Z,1022.16
2019-02-05T15:53:13.238Z,1022.18
2019-02-05T15:54:13.243Z,1022.20
2019-02-05T15:56:06.184Z,1022.20
2019-02-05T15:57:06.153Z,1022.20
2019-02-05T15:58:59.056Z,1022.16
2019-02-05T15:59:59.062Z,1022.22
2019-02-05T16:01:51.955Z,1022.27
2019-02-05T16:02:51.967Z,1022.26
2019-02-05T16:04:44.872Z,1022.28
2019-02-05T16:05:44.877Z,1022.27
2019-02-05T16:07:37.788Z,1022.18
2019-02-05T16:08:37.787Z,1022.17
2019-02-05T16:10:30.677Z,1022.21
2019-02-05T16:11:30.690Z,1022.13
2019-02-05T16:13:23.597Z,1022.14
2019-02-05T16:14:23.599Z,1022.12
2019-02-05T16:16:16.496Z,1022.09
2019-02-05T16:17:16.506Z,1022.10
2019-02-05T16:19:09.409Z,1022.07
2019-02-05T16:20:09.414Z,1022.07
2019-02-05T16:22:02.455Z,1022.08
2019-02-05T16:23:02.369Z,1022.10
2019-02-05T16:24:55.219Z,1022.12
2019-02-05T16:25:55.229Z,1022.09
2019-02-05T16:27:48.135Z,1022.18
2019-02-05T16:28:48.136Z,1022.19
2019-02-05T16:30:41.033Z,1022.22
2019-02-05T16:31:41.042Z,1022.27
2019-02-05T16:33:33.948Z,1022.26
2019-02-05T16:34:34.052Z,1022.27
2019-02-05T16:36:26.841Z,1022.25
2019-02-05T16:37:26.857Z,1022.25
2019-02-05T16:39:19.762Z,1022.26
2019-02-05T16:40:19.765Z,1022.27
2019-02-05T16:42:12.670Z,1022.28
2019-02-05T16:43:13.221Z,1022.27
2019-02-05T16:45:05.577Z,1022.32
2019-02-05T16:46:05.603Z,1022.28
2019-02-05T16:47:58.484Z,1022.32
2019-02-05T16:48:58.486Z,1022.34
2019-02-05T16:50:51.386Z,1022.38
2019-02-05T16:51:51.393Z,1022.29
2019-02-05T16:53:44.296Z,1022.30
2019-02-05T16:54:44.300Z,1022.27
2019-02-05T16:56:37.220Z,1022.28
2019-02-05T16:57:37.226Z,1022.28
2019-02-05T16:59:30.130Z,1022.28
2019-02-05T17:00:30.135Z,1022.26
2019-02-05T17:02:29.031Z,1022.29
2019-02-05T17:03:23.039Z,1022.29
2019-02-05T17:05:15.942Z,1022.30
2019-02-05T17:06:15.947Z,1022.27
2019-02-05T17:08:08.848Z,1022.24
2019-02-05T17:09:08.853Z,1022.27
2019-02-05T17:11:03.773Z,1022.23
2019-02-05T17:12:03.787Z,1022.25
2019-02-05T17:13:56.693Z,1022.21
2019-02-05T17:14:56.694Z,1022.23
2019-02-05T17:16:49.593Z,1022.20
2019-02-05T17:17:49.704Z,1022.19
2019-02-05T17:19:42.506Z,1022.23
2019-02-05T17:20:42.513Z,1022.19
2019-02-05T17:22:35.408Z,1022.16
2019-02-05T17:23:35.418Z,1022.19
2019-02-05T17:25:28.320Z,1022.18